< Typhoon 195810 1958 Season Typhoon 195812 >
Typhoon 195811 (ALICE)
General InformationTrack Information on Google Maps || Disaster Info.ResourceGoogle EarthGE AnimationAtom FeedGeoJSON
Detalied Best Track (Time Zone = UTC)
Year Month Day Hour Lat. Long. Pressure (hPa) Wind (kt) Class Image Chart
1958 7 13 06 5.0 146.0 1000 0 2 -- Chart
1958 7 13 12 5.7 145.4 1000 0 2 -- Chart
1958 7 13 18 7.2 144.5 1000 0 2 -- Chart
1958 7 14 00 8.6 143.5 1000 0 2 -- Chart
1958 7 14 06 10.1 142.6 1000 0 9 -- Chart
1958 7 14 12 10.8 141.9 995 0 9 -- Chart
1958 7 14 18 11.6 141.2 995 0 9 -- Chart
1958 7 15 00 13.0 140.2 995 0 9 -- Chart
1958 7 15 06 13.5 139.5 995 0 9 -- Chart
1958 7 15 12 14.1 138.7 995 0 9 -- Chart
1958 7 15 18 14.5 138.0 995 0 9 -- Chart
1958 7 16 00 14.6 137.2 995 0 9 -- Chart
1958 7 16 06 14.6 136.3 995 0 9 -- Chart
1958 7 16 12 14.7 135.4 995 0 9 -- Chart
1958 7 16 18 14.9 135.2 985 0 9 -- Chart
1958 7 17 00 15.4 134.9 975 0 9 -- Chart
1958 7 17 06 15.9 134.0 975 0 9 -- Chart
1958 7 17 12 16.6 133.6 960 0 9 -- Chart
1958 7 17 18 17.4 133.2 950 0 9 -- Chart
1958 7 18 00 18.1 132.8 940 0 9 -- Chart
1958 7 18 06 18.8 132.2 940 0 9 -- Chart
1958 7 18 12 18.8 131.8 935 0 9 -- Chart
1958 7 18 18 20.0 131.7 935 0 9 -- Chart
1958 7 19 00 21.0 131.5 925 0 9 -- Chart
1958 7 19 06 22.0 131.6 925 0 9 -- Chart
1958 7 19 12 22.7 131.9 925 0 9 -- Chart
1958 7 19 18 23.5 132.0 925 0 9 -- Chart
1958 7 20 00 24.7 131.3 930 0 9 -- Chart
1958 7 20 06 25.5 131.5 940 0 9 -- Chart
1958 7 20 12 26.2 131.6 940 0 9 -- Chart
1958 7 20 18 26.8 132.5 950 0 9 -- Chart
1958 7 21 00 27.5 133.1 960 0 9 -- Chart
1958 7 21 06 28.1 133.8 960 0 9 -- Chart
1958 7 21 12 28.5 134.5 970 0 9 -- Chart
1958 7 21 18 29.0 135.6 970 0 9 -- Chart
1958 7 22 00 30.7 135.7 970 0 9 -- Chart
1958 7 22 06 31.8 136.1 970 0 9 -- Chart
1958 7 22 12 32.3 136.4 970 0 9 -- Chart
1958 7 22 18 33.6 137.3 970 0 9 -- Chart
1958 7 23 00 35.9 139.2 980 0 9 -- Chart
1958 7 23 06 38.3 140.4 990 0 9 -- Chart
1958 7 23 12 41.6 143.6 990 0 9 -- Chart
1958 7 23 18 44.9 146.9 986 0 9 -- Chart
1958 7 24 00 48.2 150.2 988 0 9 -- Chart
1958 7 24 06 50.0 154.0 986 0 9 -- Chart
1958 7 24 12 51.0 157.2 980 0 9 -- Chart
1958 7 24 18 51.8 162.0 980 0 6 -- Chart
1958 7 25 00 52.5 164.2 984 0 6 -- Chart
1958 7 25 06 52.8 165.0 986 0 6 -- Chart
1958 7 25 12 53.0 166.0 986 0 6 -- Chart
1958 7 25 18 53.0 168.0 984 0 6 -- Chart
1958 7 26 00 53.0 169.0 982 0 6 -- Chart
1958 7 26 06 52.0 172.0 986 0 6 -- Chart
1958 7 26 12 52.0 173.0 986 0 6 -- Chart
1958 7 26 18 51.8 174.0 988 0 6 -- Chart
1958 7 27 00 51.5 174.6 990 0 6 -- Chart
1958 7 27 06 51.0 174.8 990 0 6 -- Chart
1958 7 27 12 50.0 175.0 998 0 6 -- Chart
1958 7 27 18 49.0 175.6 998 0 6 -- Chart
1958 7 28 00 48.6 178.0 1000 0 6 -- Chart
1958 7 28 06 48.5 181.0 1002 0 6 -- Chart
Japan Meteorological Agency Best Track Data | Correction Date : 1989-06-01
< Typhoon 195810 1958 Season Typhoon 195812 >

Help